Time;durP1;ratioP1;P1;durP2;ratioP2;P2;SDS_P1;SDS_P2;PMS_P1;PMS_P2;Temp;Humidity;BMP_temperature;BMP_pressure;BME280_temperature;BME280_humidity;BME280_pressure;Samples;Min_cycle;Max_cycle;Signal;HPM_P1;HPM_P2
2023/09/14 00:00:44;;;;;;;1.90;1.80;;;17.70;70.20;;;;;;955011;146;27434;-75
2023/09/14 00:03:12;;;;;;;2.20;2.00;;;17.60;70.40;;;;;;953891;146;27351;-75
2023/09/14 00:05:40;;;;;;;1.87;1.77;;;17.60;70.50;;;;;;934381;149;27337;-75
2023/09/14 00:08:09;;;;;;;2.40;1.42;;;17.50;70.70;;;;;;947882;146;27432;-74
2023/09/14 00:10:36;;;;;;;2.45;1.70;;;17.40;70.80;;;;;;952979;147;27427;-75
2023/09/14 00:13:03;;;;;;;1.70;1.60;;;17.40;71.00;;;;;;954180;146;27332;-75
2023/09/14 00:15:29;;;;;;;1.50;1.35;;;17.30;71.10;;;;;;954128;146;27298;-75
2023/09/14 00:17:56;;;;;;;1.90;1.52;;;17.20;71.30;;;;;;938157;149;27401;-75
2023/09/14 00:20:22;;;;;;;1.70;1.60;;;17.10;71.40;;;;;;954135;146;27439;-75
2023/09/14 00:22:49;;;;;;;1.92;1.47;;;17.10;71.70;;;;;;947551;148;27487;-74
2023/09/14 00:25:15;;;;;;;1.72;1.57;;;17.00;71.90;;;;;;930750;151;27327;-74
2023/09/14 00:27:42;;;;;;;1.67;1.55;;;17.00;72.20;;;;;;944589;149;27305;-74
2023/09/14 00:30:09;;;;;;;2.42;1.57;;;16.90;72.40;;;;;;924513;151;27434;-75
2023/09/14 00:32:39;;;;;;;1.47;1.35;;;16.90;72.70;;;;;;925185;150;27354;-74
2023/09/14 00:35:02;;;;;;;2.10;1.82;;;16.80;72.80;;;;;;944072;148;27471;-75
2023/09/14 00:37:28;;;;;;;2.37;1.55;;;16.70;73.00;;;;;;944276;148;27368;-75
2023/09/14 00:39:55;;;;;;;3.37;1.80;;;16.70;73.30;;;;;;949225;146;28010;-74
2023/09/14 00:42:22;;;;;;;1.92;1.77;;;16.60;73.60;;;;;;946407;147;27376;-75
2023/09/14 00:44:48;;;;;;;3.10;1.57;;;16.60;73.80;;;;;;951694;146;27387;-74
2023/09/14 00:47:15;;;;;;;3.02;1.90;;;16.50;74.10;;;;;;934550;149;27918;-75
2023/09/14 00:49:41;;;;;;;1.57;1.47;;;16.40;74.30;;;;;;955651;146;27320;-75
2023/09/14 00:52:10;;;;;;;1.60;1.50;;;16.40;74.60;;;;;;949659;147;27336;-75
2023/09/14 00:54:35;;;;;;;2.70;1.70;;;16.30;74.80;;;;;;950962;147;27974;-74
2023/09/14 00:57:01;;;;;;;2.70;1.60;;;16.30;75.00;;;;;;949756;147;27400;-75
2023/09/14 00:59:28;;;;;;;2.00;1.60;;;16.20;75.20;;;;;;935703;149;27290;-75
2023/09/14 01:01:54;;;;;;;2.42;1.72;;;16.20;75.60;;;;;;935167;149;27360;-75
2023/09/14 01:04:21;;;;;;;2.15;1.67;;;16.10;75.70;;;;;;946483;149;27348;-75
2023/09/14 01:06:47;;;;;;;1.37;1.27;;;16.00;76.00;;;;;;945989;148;27333;-75
2023/09/14 01:09:14;;;;;;;3.20;2.15;;;16.00;76.20;;;;;;944721;148;27388;-75
2023/09/14 01:11:41;;;;;;;1.70;1.30;;;15.90;76.50;;;;;;946421;149;27445;-75
2023/09/14 01:14:29;;;;;;;1.70;1.60;;;15.90;76.80;;;;;;931970;147;27382;-75
2023/09/14 01:17:07;;;;;;;1.75;1.42;;;15.80;77.10;;;;;;927016;150;27499;-75
2023/09/14 01:19:43;;;;;;;2.90;1.92;;;15.80;77.30;;;;;;928057;149;27409;-75
2023/09/14 01:22:12;;;;;;;2.50;1.52;;;15.70;77.60;;;;;;942990;148;27394;-75
2023/09/14 01:24:39;;;;;;;1.85;1.72;;;15.70;77.80;;;;;;946051;146;27416;-75
2023/09/14 01:27:05;;;;;;;3.00;1.97;;;15.60;78.20;;;;;;950600;147;27352;-75
2023/09/14 01:29:32;;;;;;;2.60;1.77;;;15.60;78.50;;;;;;926462;150;27394;-75
2023/09/14 01:31:59;;;;;;;2.65;1.72;;;15.60;78.80;;;;;;942637;147;27343;-75
2023/09/14 01:34:25;;;;;;;2.08;1.80;;;15.50;79.20;;;;;;933694;149;27485;-75
2023/09/14 01:36:54;;;;;;;4.03;1.70;;;15.50;79.40;;;;;;932522;150;27462;-75
2023/09/14 01:39:21;;;;;;;2.12;1.85;;;15.50;79.70;;;;;;947870;147;27258;-75
2023/09/14 01:41:54;;;;;;;1.95;1.50;;;15.50;80.10;;;;;;950978;147;27394;-75
2023/09/14 01:44:14;;;;;;;1.67;1.57;;;15.40;80.40;;;;;;939206;149;27398;-75
2023/09/14 01:46:41;;;;;;;2.87;1.70;;;15.40;80.60;;;;;;944201;147;27458;-75
2023/09/14 01:49:07;;;;;;;1.77;1.57;;;15.40;80.90;;;;;;927474;150;27335;-75
2023/09/14 01:51:34;;;;;;;2.40;2.20;;;15.40;81.20;;;;;;950876;147;27321;-75
2023/09/14 01:54:00;;;;;;;2.67;1.57;;;15.30;81.60;;;;;;952324;147;27455;-75
2023/09/14 01:56:27;;;;;;;2.52;1.82;;;15.30;81.90;;;;;;950976;147;27338;-75
2023/09/14 01:58:54;;;;;;;3.37;1.90;;;15.30;82.30;;;;;;950754;147;27303;-75
2023/09/14 02:01:20;;;;;;;3.17;1.67;;;15.30;82.60;;;;;;933965;149;27327;-75
2023/09/14 02:03:47;;;;;;;3.07;1.83;;;15.20;82.90;;;;;;934034;149;27287;-75
2023/09/14 02:06:13;;;;;;;1.95;1.70;;;15.20;83.30;;;;;;926836;150;27433;-74
2023/09/14 02:08:40;;;;;;;1.50;1.40;;;15.20;83.50;;;;;;933657;149;27496;-76
2023/09/14 02:11:07;;;;;;;2.63;1.77;;;15.10;84.70;;;;;;934151;149;27346;-76
2023/09/14 02:13:34;;;;;;;2.17;1.47;;;15.10;84.30;;;;;;933439;149;27338;-76
2023/09/14 02:16:00;;;;;;;3.00;1.70;;;15.10;84.80;;;;;;926727;150;27350;-74
2023/09/14 02:18:26;;;;;;;1.80;1.62;;;15.10;85.10;;;;;;943725;148;27406;-76
2023/09/14 02:20:53;;;;;;;2.30;1.63;;;15.00;85.50;;;;;;940157;147;27294;-76
2023/09/14 02:23:20;;;;;;;1.90;1.77;;;15.00;85.80;;;;;;933286;149;27423;-75
2023/09/14 02:25:46;;;;;;;4.23;1.57;;;14.90;86.30;;;;;;937459;149;27330;-75
2023/09/14 02:28:19;;;;;;;1.50;1.40;;;14.90;86.70;;;;;;932324;150;27429;-76
2023/09/14 02:30:39;;;;;;;2.62;1.75;;;14.90;87.30;;;;;;931674;149;28900;-76
2023/09/14 02:33:07;;;;;;;1.53;1.40;;;14.90;87.60;;;;;;935333;149;27342;-75
2023/09/14 02:35:32;;;;;;;3.37;1.77;;;14.80;88.20;;;;;;917434;150;27449;-75
2023/09/14 02:37:59;;;;;;;2.27;1.67;;;14.80;88.90;;;;;;934747;149;27461;-76
2023/09/14 02:40:26;;;;;;;2.92;1.80;;;14.80;89.40;;;;;;950669;147;28954;-76
2023/09/14 02:42:52;;;;;;;2.00;1.80;;;14.80;89.70;;;;;;934043;149;27348;-75
2023/09/14 02:45:19;;;;;;;2.60;1.80;;;14.70;90.00;;;;;;917435;151;27300;-75
2023/09/14 02:47:45;;;;;;;2.60;1.67;;;14.70;90.30;;;;;;935340;148;27347;-75
2023/09/14 02:50:12;;;;;;;4.23;1.93;;;14.70;90.50;;;;;;934894;149;27469;-76
2023/09/14 02:52:39;;;;;;;2.97;1.80;;;14.60;90.70;;;;;;933390;149;27322;-76
2023/09/14 02:55:05;;;;;;;2.90;1.90;;;14.60;91.00;;;;;;933608;149;27323;-76
2023/09/14 02:57:32;;;;;;;2.73;2.00;;;14.60;91.20;;;;;;933435;149;28056;-75
2023/09/14 02:59:58;;;;;;;2.43;2.07;;;14.60;91.30;;;;;;933316;150;27457;-76
2023/09/14 03:02:25;;;;;;;3.87;1.90;;;14.50;91.60;;;;;;931925;150;27369;-76
2023/09/14 03:04:52;;;;;;;2.20;2.00;;;14.50;91.80;;;;;;940072;148;27346;-76
2023/09/14 03:07:18;;;;;;;3.37;1.60;;;14.50;92.20;;;;;;934009;149;27359;-77
2023/09/14 03:09:45;;;;;;;2.17;1.97;;;14.40;92.30;;;;;;952702;147;27506;-74
2023/09/14 03:12:11;;;;;;;2.23;2.00;;;14.40;92.50;;;;;;943056;149;27395;-76
2023/09/14 03:14:38;;;;;;;2.90;1.97;;;14.40;92.80;;;;;;934942;149;27439;-76
2023/09/14 03:17:04;;;;;;;2.07;1.87;;;14.30;93.00;;;;;;942804;147;27283;-74
2023/09/14 03:19:31;;;;;;;3.77;1.70;;;14.30;93.10;;;;;;941162;149;27389;-74
2023/09/14 03:21:58;;;;;;;3.05;1.72;;;14.30;93.40;;;;;;943606;149;27453;-74
2023/09/14 03:24:24;;;;;;;3.03;2.30;;;14.30;93.60;;;;;;957032;146;27308;-75
2023/09/14 03:26:51;;;;;;;2.20;2.00;;;14.20;93.70;;;;;;956887;146;27376;-74
2023/09/14 03:29:17;;;;;;;2.27;2.03;;;14.20;94.10;;;;;;951700;146;27232;-74
2023/09/14 03:31:44;;;;;;;2.97;2.10;;;14.20;94.20;;;;;;955992;146;27413;-74
2023/09/14 03:34:11;;;;;;;3.53;2.63;;;14.20;94.50;;;;;;952751;146;27412;-75
2023/09/14 03:36:37;;;;;;;3.53;2.33;;;14.10;94.70;;;;;;937997;149;27376;-74
2023/09/14 03:39:04;;;;;;;3.77;2.23;;;14.10;95.00;;;;;;945502;148;27361;-75
2023/09/14 03:41:30;;;;;;;4.73;3.20;;;14.10;95.30;;;;;;930362;151;27350;-75
2023/09/14 03:43:57;;;;;;;4.03;3.63;;;14.10;95.50;;;;;;944231;149;27433;-74
2023/09/14 03:46:24;;;;;;;4.40;4.00;;;14.10;95.80;;;;;;929800;152;27339;-74
2023/09/14 03:48:50;;;;;;;3.67;3.37;;;14.10;96.00;;;;;;929582;153;27396;-74
2023/09/14 03:51:17;;;;;;;4.47;3.90;;;14.10;96.20;;;;;;932081;151;27442;-75
2023/09/14 03:53:43;;;;;;;4.80;4.27;;;14.00;96.40;;;;;;942742;151;27458;-75
2023/09/14 03:56:10;;;;;;;5.60;5.10;;;14.00;96.60;;;;;;932482;150;27429;-75
2023/09/14 03:58:36;;;;;;;5.27;4.77;;;14.00;96.70;;;;;;943209;149;27419;-75
2023/09/14 04:01:03;;;;;;;8.00;4.37;;;14.00;96.90;;;;;;953397;147;27304;-75
2023/09/14 04:03:30;;;;;;;8.27;5.10;;;14.00;97.20;;;;;;957255;146;27351;-75
2023/09/14 04:05:56;;;;;;;6.50;4.73;;;14.00;97.40;;;;;;946304;148;27310;-74
2023/09/14 04:08:24;;;;;;;5.07;4.57;;;13.90;97.60;;;;;;951530;146;27464;-75
2023/09/14 04:10:51;;;;;;;4.53;3.97;;;14.00;97.80;;;;;;939596;148;27339;-75
2023/09/14 04:13:29;;;;;;;4.00;3.63;;;13.90;97.90;;;;;;938389;149;27298;-75
2023/09/14 04:15:55;;;;;;;4.27;3.97;;;13.90;98.20;;;;;;948732;147;27419;-75
2023/09/14 04:18:21;;;;;;;4.90;4.27;;;13.90;98.10;;;;;;956600;146;27325;-74
2023/09/14 04:20:48;;;;;;;5.23;4.73;;;13.80;98.30;;;;;;929201;151;27311;-75
2023/09/14 04:23:15;;;;;;;6.27;4.40;;;13.80;98.50;;;;;;942778;149;27325;-74
2023/09/14 04:25:47;;;;;;;4.33;3.87;;;13.80;98.70;;;;;;940904;150;27393;-75
2023/09/14 04:28:16;;;;;;;4.00;3.60;;;13.80;98.80;;;;;;946884;149;27430;-76
2023/09/14 04:30:43;;;;;;;5.10;4.40;;;13.80;98.90;;;;;;934109;150;27289;-76
2023/09/14 04:33:09;;;;;;;4.60;4.20;;;13.80;99.10;;;;;;933273;152;27440;-76
2023/09/14 04:35:36;;;;;;;3.57;3.17;;;13.70;99.30;;;;;;947108;149;27332;-76
2023/09/14 04:38:02;;;;;;;4.43;3.83;;;13.70;99.40;;;;;;946477;149;27458;-76
2023/09/14 04:40:29;;;;;;;9.33;8.43;;;13.70;99.50;;;;;;940485;149;27765;-76
2023/09/14 04:42:55;;;;;;;11.37;8.63;;;13.70;99.70;;;;;;945184;149;27309;-76
2023/09/14 04:45:22;;;;;;;7.73;7.03;;;13.60;99.90;;;;;;917133;152;27353;-76
2023/09/14 04:47:49;;;;;;;9.27;8.13;;;13.70;99.90;;;;;;933420;151;28132;-76
2023/09/14 04:50:15;;;;;;;8.87;5.83;;;13.60;99.90;;;;;;933834;150;27293;-76
2023/09/14 04:52:42;;;;;;;4.13;3.83;;;13.60;99.90;;;;;;920703;151;27403;-76
2023/09/14 04:55:09;;;;;;;8.10;4.63;;;13.60;99.90;;;;;;948224;149;27318;-75
2023/09/14 04:57:35;;;;;;;3.77;3.47;;;13.60;99.90;;;;;;948156;148;27461;-75
2023/09/14 05:00:04;;;;;;;3.23;2.57;;;13.50;99.90;;;;;;927835;151;27442;-76
2023/09/14 05:02:28;;;;;;;3.10;2.77;;;13.60;99.90;;;;;;930552;151;27701;-76
2023/09/14 05:04:55;;;;;;;2.40;2.20;;;13.50;99.90;;;;;;931141;151;27279;-76
2023/09/14 05:07:21;;;;;;;2.70;2.50;;;13.50;99.90;;;;;;930044;151;27381;-76
2023/09/14 05:09:48;;;;;;;5.43;2.67;;;13.50;99.90;;;;;;928086;151;27413;-76
2023/09/14 05:12:14;;;;;;;5.37;2.40;;;13.50;99.90;;;;;;940897;150;27346;-75
2023/09/14 05:14:41;;;;;;;2.57;2.37;;;13.50;99.90;;;;;;942183;151;27333;-76
2023/09/14 05:17:08;;;;;;;2.93;2.50;;;13.50;99.90;;;;;;931796;152;27474;-74
2023/09/14 05:19:34;;;;;;;2.63;2.43;;;13.50;99.90;;;;;;939640;149;27452;-75
2023/09/14 05:22:01;;;;;;;2.53;2.33;;;13.50;99.90;;;;;;945425;148;27469;-76
2023/09/14 05:24:27;;;;;;;2.30;2.07;;;13.50;99.90;;;;;;942718;151;27329;-75
2023/09/14 05:26:54;;;;;;;3.90;2.60;;;13.50;99.90;;;;;;949542;148;27325;-74
2023/09/14 05:29:21;;;;;;;3.50;2.30;;;13.60;99.90;;;;;;951117;147;27352;-76
2023/09/14 05:31:47;;;;;;;3.77;2.47;;;13.80;99.90;;;;;;948674;148;28692;-76
2023/09/14 05:34:14;;;;;;;2.57;2.00;;;14.00;99.90;;;;;;945611;148;27344;-76
2023/09/14 05:36:40;;;;;;;2.08;1.87;;;14.30;99.90;;;;;;946905;148;27711;-75
2023/09/14 05:39:08;;;;;;;2.37;2.17;;;14.60;99.90;;;;;;946199;148;27836;-74
2023/09/14 05:41:34;;;;;;;2.42;2.22;;;15.00;99.90;;;;;;934782;148;27340;-75
2023/09/14 05:44:00;;;;;;;4.55;2.20;;;15.50;99.90;;;;;;929849;150;27328;-75
2023/09/14 05:46:27;;;;;;;2.05;1.80;;;16.00;99.90;;;;;;932263;150;27349;-75
2023/09/14 05:48:53;;;;;;;2.67;2.25;;;16.50;99.90;;;;;;931233;150;27803;-75
2023/09/14 05:51:20;;;;;;;2.27;2.08;;;17.10;99.90;;;;;;947922;147;27436;-75
2023/09/14 05:53:47;;;;;;;2.95;2.25;;;17.60;99.90;;;;;;944275;149;27316;-75
2023/09/14 05:56:13;;;;;;;2.30;2.10;;;18.20;99.90;;;;;;947555;146;27268;-75
2023/09/14 05:58:40;;;;;;;1.65;1.55;;;18.80;99.90;;;;;;947726;147;27314;-75
2023/09/14 06:01:06;;;;;;;2.80;2.02;;;19.30;99.80;;;;;;942410;148;27367;-75
2023/09/14 06:03:33;;;;;;;2.35;2.00;;;19.80;97.90;;;;;;943425;149;27443;-75
2023/09/14 06:06:00;;;;;;;3.15;2.10;;;20.30;96.60;;;;;;942165;149;27266;-75
2023/09/14 06:08:26;;;;;;;2.02;1.80;;;20.90;94.90;;;;;;942590;148;27372;-75
2023/09/14 06:10:53;;;;;;;1.90;1.75;;;21.40;93.60;;;;;;943248;149;27306;-75
2023/09/14 06:13:20;;;;;;;2.65;2.45;;;22.00;91.70;;;;;;943233;148;27362;-75
2023/09/14 06:15:46;;;;;;;2.40;2.20;;;22.50;90.40;;;;;;933148;149;27307;-75
2023/09/14 06:18:12;;;;;;;2.42;2.22;;;23.00;87.60;;;;;;950502;147;27318;-75
2023/09/14 06:20:39;;;;;;;2.25;2.05;;;23.60;85.80;;;;;;939555;150;27333;-75
2023/09/14 06:23:06;;;;;;;4.95;2.60;;;24.10;82.90;;;;;;949851;147;27320;-75
2023/09/14 06:25:32;;;;;;;2.25;2.00;;;24.70;80.70;;;;;;939931;149;28389;-76
2023/09/14 06:27:59;;;;;;;2.72;2.05;;;25.30;78.70;;;;;;947646;147;27419;-76
2023/09/14 06:30:25;;;;;;;4.08;2.40;;;25.80;76.40;;;;;;946005;146;27251;-76
2023/09/14 06:32:52;;;;;;;2.05;1.90;;;26.40;74.20;;;;;;933583;149;27803;-76
2023/09/14 06:35:19;;;;;;;3.27;2.20;;;26.90;71.80;;;;;;933625;150;27347;-76
2023/09/14 06:37:46;;;;;;;2.65;2.10;;;27.30;70.00;;;;;;932347;149;27391;-76
2023/09/14 06:40:12;;;;;;;3.80;2.37;;;27.70;68.80;;;;;;947905;147;27279;-76
2023/09/14 06:42:38;;;;;;;2.92;2.58;;;28.10;67.50;;;;;;945991;147;27336;-76
2023/09/14 06:45:06;;;;;;;1.90;1.67;;;28.50;66.40;;;;;;933995;149;27460;-76
2023/09/14 06:47:32;;;;;;;3.75;2.10;;;28.90;65.30;;;;;;931554;150;27356;-78
2023/09/14 06:49:58;;;;;;;3.20;2.15;;;29.30;64.40;;;;;;946031;147;27669;-78
2023/09/14 06:52:25;;;;;;;2.47;1.85;;;29.70;63.30;;;;;;933179;150;27401;-77
2023/09/14 06:54:51;;;;;;;3.52;2.02;;;30.10;62.20;;;;;;934313;149;27394;-77
2023/09/14 06:57:18;;;;;;;1.92;1.65;;;30.50;61.30;;;;;;946363;147;27345;-78
2023/09/14 06:59:44;;;;;;;2.00;1.80;;;30.90;60.20;;;;;;943553;147;27354;-78
2023/09/14 07:02:11;;;;;;;2.08;1.80;;;31.30;59.40;;;;;;932523;150;27343;-77
2023/09/14 07:04:38;;;;;;;2.77;2.27;;;31.70;58.60;;;;;;947955;147;27742;-76
2023/09/14 07:07:04;;;;;;;1.95;1.72;;;32.00;57.90;;;;;;940430;149;27362;-77
2023/09/14 07:09:31;;;;;;;2.35;2.10;;;32.40;57.30;;;;;;950810;147;27361;-78
2023/09/14 07:11:57;;;;;;;4.50;2.17;;;32.70;56.50;;;;;;949772;147;27318;-77
2023/09/14 07:14:24;;;;;;;3.25;2.30;;;33.00;55.80;;;;;;941900;148;27347;-79
2023/09/14 07:16:51;;;;;;;2.40;1.77;;;33.30;55.10;;;;;;950502;147;27345;-76
2023/09/14 07:19:17;;;;;;;2.20;2.00;;;33.60;54.70;;;;;;949914;147;27336;-78
2023/09/14 07:21:44;;;;;;;2.05;1.90;;;33.90;54.30;;;;;;939317;148;26256;-78
2023/09/14 07:24:10;;;;;;;2.60;1.87;;;34.20;53.80;;;;;;961977;146;27327;-77
2023/09/14 07:26:40;;;;;;;2.55;1.90;;;34.60;53.10;;;;;;946559;148;26243;-76
2023/09/14 07:29:04;;;;;;;4.85;2.00;;;34.90;52.40;;;;;;946237;148;27428;-78
2023/09/14 07:31:30;;;;;;;3.22;2.27;;;35.10;51.50;;;;;;946041;148;26271;-79
2023/09/14 07:33:57;;;;;;;2.42;1.75;;;35.20;50.70;;;;;;964578;146;27299;-78
2023/09/14 07:36:23;;;;;;;3.98;1.87;;;35.40;50.30;;;;;;962941;146;26223;-78
2023/09/14 07:38:50;;;;;;;2.12;1.92;;;35.50;50.10;;;;;;943170;149;26338;-78
2023/09/14 07:41:16;;;;;;;2.60;2.00;;;35.70;49.80;;;;;;944377;149;26353;-77
2023/09/14 07:43:43;;;;;;;2.10;1.82;;;35.80;49.30;;;;;;965001;146;26240;-78
2023/09/14 07:46:10;;;;;;;2.75;1.85;;;36.00;49.00;;;;;;959069;146;27438;-76
2023/09/14 07:48:36;;;;;;;2.12;1.82;;;36.20;48.70;;;;;;958183;146;26268;-76
2023/09/14 07:51:03;;;;;;;1.62;1.52;;;36.40;48.30;;;;;;945684;148;26824;-79
2023/09/14 07:53:29;;;;;;;2.83;2.15;;;36.60;47.90;;;;;;945660;149;26240;-79
2023/09/14 07:55:56;;;;;;;2.58;1.95;;;36.80;47.10;;;;;;945187;149;26180;-77
2023/09/14 07:58:23;;;;;;;2.35;1.85;;;37.00;46.60;;;;;;945926;148;26306;-76
2023/09/14 08:00:49;;;;;;;3.02;1.75;;;37.10;46.20;;;;;;946247;149;26291;-76
2023/09/14 08:03:16;;;;;;;3.72;1.95;;;37.20;45.70;;;;;;945360;149;26305;-76
2023/09/14 08:05:42;;;;;;;2.25;1.50;;;37.30;45.40;;;;;;946665;149;26224;-76
2023/09/14 08:08:09;;;;;;;3.25;1.80;;;37.40;45.30;;;;;;946546;149;26316;-76
2023/09/14 08:10:36;;;;;;;3.12;1.72;;;37.50;45.10;;;;;;945493;149;26326;-76
2023/09/14 08:13:02;;;;;;;1.87;1.62;;;37.60;44.50;;;;;;946922;149;26278;-76
2023/09/14 08:15:29;;;;;;;2.85;1.87;;;37.80;44.50;;;;;;946692;149;26320;-76
2023/09/14 08:17:55;;;;;;;1.82;1.72;;;37.90;44.20;;;;;;945456;148;26244;-76
2023/09/14 08:20:22;;;;;;;2.70;1.80;;;38.10;43.90;;;;;;941719;149;26365;-76
2023/09/14 08:22:49;;;;;;;2.67;1.42;;;38.20;43.30;;;;;;946534;146;26376;-76
2023/09/14 08:25:16;;;;;;;2.75;1.50;;;38.40;43.10;;;;;;937231;149;26350;-76
2023/09/14 08:27:43;;;;;;;2.60;2.08;;;38.50;42.80;;;;;;938060;148;26230;-76
2023/09/14 08:30:11;;;;;;;2.00;1.80;;;38.70;42.40;;;;;;949535;147;26288;-76
2023/09/14 08:32:38;;;;;;;3.95;1.90;;;38.80;41.40;;;;;;925068;150;26299;-76
2023/09/14 08:35:25;;;;;;;2.77;1.77;;;38.70;40.80;;;;;;946766;147;27279;-76
2023/09/14 08:37:52;;;;;;;2.27;1.40;;;38.60;40.30;;;;;;933991;149;26322;-76
2023/09/14 08:40:18;;;;;;;1.92;1.72;;;38.40;40.20;;;;;;947572;147;26226;-76
2023/09/14 08:42:51;;;;;;;1.98;1.52;;;38.10;39.90;;;;;;925128;150;26244;-76
2023/09/14 08:45:17;;;;;;;3.37;1.77;;;37.70;39.70;;;;;;932273;149;26294;-76
2023/09/14 08:47:44;;;;;;;3.58;1.45;;;37.10;39.40;;;;;;930600;150;26322;-76
2023/09/14 08:50:13;;;;;;;2.37;1.65;;;36.50;39.10;;;;;;946202;147;27350;-76
2023/09/14 08:52:37;;;;;;;3.70;1.72;;;35.70;39.10;;;;;;933237;149;27375;-76
2023/09/14 08:55:03;;;;;;;4.25;1.90;;;35.10;39.70;;;;;;942938;147;27446;-75
2023/09/14 08:57:30;;;;;;;2.25;1.57;;;34.50;40.40;;;;;;933603;149;27741;-76
2023/09/14 08:59:56;;;;;;;2.77;1.52;;;34.00;40.80;;;;;;932323;149;27303;-75
2023/09/14 09:02:23;;;;;;;3.08;1.92;;;33.70;41.40;;;;;;946239;147;27373;-76
2023/09/14 09:04:50;;;;;;;2.72;1.45;;;33.60;42.10;;;;;;935318;149;28844;-77
2023/09/14 09:07:16;;;;;;;1.70;1.60;;;33.60;42.50;;;;;;937574;149;26669;-77
2023/09/14 09:09:43;;;;;;;2.42;1.52;;;33.70;42.90;;;;;;933842;149;26316;-79
2023/09/14 09:12:09;;;;;;;2.45;1.47;;;34.00;43.30;;;;;;936018;149;26274;-78
2023/09/14 09:14:37;;;;;;;1.90;1.80;;;34.30;43.00;;;;;;934265;149;27122;-81
2023/09/14 09:17:03;;;;;;;1.72;1.50;;;34.70;42.90;;;;;;944585;147;26350;-76
2023/09/14 09:19:29;;;;;;;2.90;1.67;;;35.10;42.60;;;;;;947268;146;26181;-77
2023/09/14 09:21:56;;;;;;;2.92;2.20;;;35.40;41.80;;;;;;948316;145;26251;-76
2023/09/14 09:24:28;;;;;;;2.50;1.57;;;35.50;41.40;;;;;;959637;145;26248;-76
2023/09/14 09:26:55;;;;;;;2.20;1.57;;;35.60;41.00;;;;;;936889;149;26361;-76
2023/09/14 09:29:22;;;;;;;2.33;1.55;;;35.70;40.60;;;;;;938284;149;26257;-77
2023/09/14 09:31:50;;;;;;;2.55;1.62;;;35.70;40.40;;;;;;938302;149;26281;-77
2023/09/14 09:34:14;;;;;;;1.77;1.67;;;35.60;40.30;;;;;;934108;149;26458;-76
2023/09/14 09:36:41;;;;;;;2.37;1.45;;;35.50;40.10;;;;;;934349;149;27826;-77
2023/09/14 09:39:11;;;;;;;4.72;1.42;;;35.40;39.80;;;;;;933647;149;27346;-76
2023/09/14 09:41:34;;;;;;;2.20;1.65;;;35.10;39.10;;;;;;935826;149;27400;-76
2023/09/14 09:44:05;;;;;;;2.37;1.75;;;34.70;38.90;;;;;;927613;150;27445;-76
2023/09/14 09:46:30;;;;;;;3.12;1.77;;;34.20;38.60;;;;;;942270;148;27362;-76
2023/09/14 09:48:57;;;;;;;1.98;1.35;;;33.50;38.60;;;;;;932599;149;26262;-76
2023/09/14 09:51:24;;;;;;;3.12;1.77;;;32.90;39.00;;;;;;933970;149;27310;-77
2023/09/14 09:54:05;;;;;;;3.60;1.90;;;32.20;39.30;;;;;;948051;147;27349;-76
2023/09/14 09:56:35;;;;;;;1.72;1.52;;;31.50;39.60;;;;;;945086;147;27344;-76
2023/09/14 09:59:01;;;;;;;2.27;1.65;;;30.80;40.00;;;;;;950619;147;27312;-76
2023/09/14 10:01:28;;;;;;;2.27;1.37;;;30.20;40.60;;;;;;941123;148;27430;-77
2023/09/14 10:03:56;;;;;;;2.17;1.70;;;29.60;41.50;;;;;;931285;149;27385;-76
2023/09/14 10:06:21;;;;;;;3.52;1.67;;;29.20;42.20;;;;;;946967;147;27348;-76
2023/09/14 10:08:54;;;;;;;2.15;1.75;;;28.90;42.90;;;;;;945224;147;27289;-76
2023/09/14 10:11:20;;;;;;;2.85;1.50;;;28.70;43.00;;;;;;945569;147;27356;-76
2023/09/14 10:13:47;;;;;;;3.22;1.75;;;28.60;42.80;;;;;;945868;147;27348;-76
2023/09/14 10:16:13;;;;;;;2.58;1.55;;;28.50;42.70;;;;;;948337;147;27390;-76
2023/09/14 10:18:40;;;;;;;4.70;1.67;;;28.40;42.40;;;;;;948357;147;27941;-76
2023/09/14 10:21:07;;;;;;;1.60;1.50;;;28.30;42.40;;;;;;949809;148;27321;-76
2023/09/14 10:23:33;;;;;;;3.37;1.75;;;28.20;42.50;;;;;;940575;148;27514;-76
2023/09/14 10:26:00;;;;;;;3.45;2.72;;;28.00;42.50;;;;;;933227;151;27460;-76
2023/09/14 10:28:26;;;;;;;2.33;2.00;;;27.90;42.80;;;;;;932958;151;27420;-76
2023/09/14 10:30:53;;;;;;;3.62;1.90;;;27.80;42.60;;;;;;937381;151;27341;-75
2023/09/14 10:33:19;;;;;;;4.03;1.98;;;27.70;42.60;;;;;;935687;151;27411;-76
2023/09/14 10:35:46;;;;;;;3.17;1.60;;;27.50;42.50;;;;;;937049;148;27465;-77
2023/09/14 10:38:13;;;;;;;3.02;2.10;;;27.30;42.50;;;;;;944258;151;27759;-76
2023/09/14 10:40:39;;;;;;;2.25;1.95;;;27.10;42.80;;;;;;942818;151;27322;-73
2023/09/14 10:43:06;;;;;;;1.87;1.67;;;27.00;43.20;;;;;;937878;151;27281;-75
2023/09/14 10:45:38;;;;;;;2.15;1.60;;;26.80;43.40;;;;;;933148;151;28459;-77
2023/09/14 10:48:05;;;;;;;2.08;1.42;;;26.70;43.60;;;;;;932033;149;27826;-73
2023/09/14 10:50:32;;;;;;;1.77;1.62;;;26.60;43.70;;;;;;934502;151;27276;-73
2023/09/14 10:52:58;;;;;;;2.58;1.60;;;26.50;43.90;;;;;;933686;152;27343;-74
2023/09/14 10:55:27;;;;;;;2.20;1.57;;;26.40;44.00;;;;;;932661;151;27439;-75
2023/09/14 10:57:51;;;;;;;3.10;1.27;;;26.30;44.20;;;;;;935224;152;27374;-75
2023/09/14 11:00:37;;;;;;;2.33;1.52;;;26.20;44.70;;;;;;933571;150;27368;-74
2023/09/14 11:03:03;;;;;;;2.45;1.52;;;26.20;45.30;;;;;;932317;152;27326;-73
2023/09/14 11:05:42;;;;;;;1.70;1.60;;;26.20;45.50;;;;;;933947;151;27335;-73
2023/09/14 11:08:09;;;;;;;1.90;1.47;;;26.20;45.60;;;;;;932973;149;27458;-73
2023/09/14 11:10:37;;;;;;;1.72;1.35;;;26.20;45.70;;;;;;934092;150;27359;-77
2023/09/14 11:13:20;;;;;;;2.05;1.62;;;26.20;45.60;;;;;;933893;152;27700;-74
2023/09/14 11:16:08;;;;;;;1.85;1.60;;;26.20;45.70;;;;;;936521;149;27341;-74
2023/09/14 11:18:40;;;;;;;1.52;1.22;;;26.20;45.80;;;;;;928280;149;27365;-73
2023/09/14 11:21:07;;;;;;;2.22;1.35;;;26.10;45.80;;;;;;928661;152;27344;-73
2023/09/14 11:23:35;;;;;;;2.62;1.40;;;26.10;45.90;;;;;;928593;150;27538;-76
2023/09/14 11:26:00;;;;;;;1.50;1.40;;;26.10;45.90;;;;;;934007;149;27743;-73
2023/09/14 11:28:27;;;;;;;3.33;1.47;;;26.10;45.80;;;;;;936048;150;27734;-73
2023/09/14 11:30:53;;;;;;;3.15;1.67;;;26.00;45.80;;;;;;936161;149;27350;-74
2023/09/14 11:33:20;;;;;;;2.02;1.27;;;26.00;45.70;;;;;;931597;150;27363;-77
2023/09/14 11:35:47;;;;;;;2.00;1.50;;;25.90;46.00;;;;;;946157;147;27341;-74
2023/09/14 11:38:16;;;;;;;3.98;1.50;;;25.80;46.10;;;;;;949687;147;27307;-77
2023/09/14 11:40:43;;;;;;;1.87;1.47;;;25.90;46.10;;;;;;926721;149;27361;-74
2023/09/14 11:43:23;;;;;;;1.72;1.12;;;25.90;46.20;;;;;;945752;147;27342;-77
2023/09/14 11:45:48;;;;;;;2.05;1.37;;;25.90;46.40;;;;;;945540;147;27972;-76
2023/09/14 11:48:14;;;;;;;1.60;1.22;;;26.00;46.60;;;;;;948861;147;27425;-76
2023/09/14 11:50:41;;;;;;;2.58;1.32;;;26.00;46.40;;;;;;950134;147;27917;-76
2023/09/14 11:53:08;;;;;;;1.62;1.37;;;26.00;46.30;;;;;;945469;147;27305;-76
2023/09/14 11:55:34;;;;;;;3.37;1.42;;;26.10;46.30;;;;;;943624;147;27343;-76
2023/09/14 11:58:01;;;;;;;1.98;1.37;;;26.00;46.10;;;;;;945448;147;27456;-76
2023/09/14 12:00:27;;;;;;;2.35;1.25;;;26.00;46.10;;;;;;945700;147;27401;-76
2023/09/14 12:02:54;;;;;;;2.12;1.72;;;25.90;46.70;;;;;;930148;150;27378;-76
2023/09/14 12:05:21;;;;;;;2.20;1.40;;;25.70;46.10;;;;;;931639;149;27384;-76
2023/09/14 12:07:47;;;;;;;1.65;1.20;;;25.70;46.40;;;;;;945701;147;27466;-76
2023/09/14 12:10:17;;;;;;;3.35;1.40;;;25.50;46.50;;;;;;944058;147;27407;-76
2023/09/14 12:12:43;;;;;;;2.25;1.37;;;25.40;46.70;;;;;;929933;150;27375;-76
2023/09/14 12:15:19;;;;;;;2.77;1.35;;;25.40;47.10;;;;;;933766;149;27314;-76
2023/09/14 12:17:51;;;;;;;1.47;1.10;;;25.40;47.30;;;;;;945723;147;27360;-76
2023/09/14 12:20:18;;;;;;;2.15;1.05;;;25.40;47.30;;;;;;949670;147;27334;-76
2023/09/14 12:22:44;;;;;;;1.40;1.30;;;25.40;47.30;;;;;;930484;150;27312;-76
2023/09/14 12:25:11;;;;;;;5.25;1.00;;;25.40;47.30;;;;;;938224;151;27461;-76
2023/09/14 12:27:38;;;;;;;1.62;1.35;;;25.50;47.50;;;;;;930939;150;27329;-76
2023/09/14 12:30:05;;;;;;;2.37;1.30;;;25.50;47.30;;;;;;930880;151;27335;-76
2023/09/14 12:32:31;;;;;;;1.32;1.20;;;25.50;47.40;;;;;;930297;151;27234;-76
2023/09/14 12:34:57;;;;;;;1.82;1.52;;;25.50;47.30;;;;;;929447;151;27324;-76
2023/09/14 12:37:24;;;;;;;1.60;1.17;;;25.50;47.50;;;;;;942087;149;27678;-76
2023/09/14 12:39:53;;;;;;;2.47;1.45;;;25.60;47.70;;;;;;929293;151;28707;-76
2023/09/14 12:42:20;;;;;;;3.02;1.50;;;25.60;47.70;;;;;;939633;149;27321;-76
2023/09/14 12:44:47;;;;;;;2.33;1.40;;;25.70;47.80;;;;;;939095;149;27409;-76
2023/09/14 12:47:13;;;;;;;1.45;1.07;;;25.90;47.80;;;;;;940745;150;27368;-76